Time;durP1;ratioP1;P1;durP2;ratioP2;P2;SDS_P1;SDS_P2;PMS_P1;PMS_P2;Temp;Humidity;BMP_temperature;BMP_pressure;BME280_temperature;BME280_humidity;BME280_pressure;Samples;Min_cycle;Max_cycle;Signal;HPM_P1;HPM_P2
2022/10/14 00:01:37;;;;;;;12.75;8.02;;;11.00;99.90;;;;;;4924748;28;20074;-65
2022/10/14 00:04:03;;;;;;;92.25;14.13;;;11.00;99.90;;;;;;4957825;29;20031;-65
2022/10/14 00:06:31;;;;;;;14.60;11.40;;;10.90;99.90;;;;;;4942365;29;20138;-64
2022/10/14 00:09:05;;;;;;;31.13;13.23;;;11.00;99.90;;;;;;4924669;29;20085;-65
2022/10/14 00:11:32;;;;;;;45.58;15.27;;;11.00;99.90;;;;;;4940907;29;20109;-65
2022/10/14 00:14:01;;;;;;;19.30;13.95;;;11.10;99.90;;;;;;4957358;29;20043;-65
2022/10/14 00:16:30;;;;;;;46.33;15.52;;;11.20;99.90;;;;;;4957559;28;20039;-65
2022/10/14 00:18:57;;;;;;;68.55;15.52;;;11.10;99.90;;;;;;4957542;28;20047;-65
2022/10/14 00:21:22;;;;;;;103.80;16.98;;;11.00;99.90;;;;;;4940177;29;20050;-65
2022/10/14 00:23:48;;;;;;;34.50;13.35;;;11.20;99.90;;;;;;4939993;28;20418;-65
2022/10/14 00:26:19;;;;;;;65.82;15.07;;;11.30;99.90;;;;;;4957521;28;20081;-65
2022/10/14 00:28:45;;;;;;;87.88;15.25;;;11.40;99.90;;;;;;4940072;29;20043;-65
2022/10/14 00:31:11;;;;;;;65.95;13.52;;;11.30;99.90;;;;;;4957256;29;20122;-65
2022/10/14 00:33:36;;;;;;;84.88;14.65;;;11.20;99.90;;;;;;4939950;29;20094;-65
2022/10/14 00:36:04;;;;;;;41.50;12.35;;;11.30;99.90;;;;;;4957135;28;20031;-65
2022/10/14 00:38:30;;;;;;;59.65;13.88;;;11.30;99.90;;;;;;4939918;29;20054;-65
2022/10/14 00:40:56;;;;;;;49.95;12.65;;;11.30;99.90;;;;;;4957031;29;20035;-65
2022/10/14 00:43:23;;;;;;;65.70;13.43;;;11.40;99.90;;;;;;4957059;28;20039;-65
2022/10/14 00:45:49;;;;;;;54.78;13.43;;;11.20;99.90;;;;;;4956918;29;20043;-65
2022/10/14 00:48:17;;;;;;;42.90;12.15;;;11.20;99.90;;;;;;4940240;29;20046;-65
2022/10/14 00:50:45;;;;;;;109.07;16.63;;;11.20;99.90;;;;;;4956915;28;20118;-65
2022/10/14 00:53:13;;;;;;;131.20;17.20;;;11.30;99.90;;;;;;4943357;29;20089;-65
2022/10/14 00:55:41;;;;;;;77.63;14.85;;;11.10;99.90;;;;;;4956832;29;20543;-65
2022/10/14 00:58:08;;;;;;;81.07;16.75;;;11.20;99.90;;;;;;4956615;28;20070;-65
2022/10/14 01:00:34;;;;;;;30.88;14.43;;;11.00;99.90;;;;;;4939444;29;20114;-65
2022/10/14 01:02:59;;;;;;;122.53;20.23;;;11.10;99.90;;;;;;4956793;29;20050;-65
2022/10/14 01:05:31;;;;;;;119.65;19.33;;;11.30;99.90;;;;;;4956612;29;20043;-65
2022/10/14 01:07:59;;;;;;;104.50;19.77;;;11.20;99.90;;;;;;4939435;29;20171;-65
2022/10/14 01:10:48;;;;;;;118.15;19.00;;;11.10;99.90;;;;;;4956417;29;20043;-65
2022/10/14 01:13:25;;;;;;;136.07;20.55;;;11.20;99.90;;;;;;4939575;29;20043;-65
2022/10/14 01:16:07;;;;;;;114.68;19.45;;;11.20;99.90;;;;;;4926334;29;20039;-65
2022/10/14 01:19:21;;;;;;;116.88;20.48;;;11.10;99.90;;;;;;4939108;29;20179;-65
2022/10/14 01:22:04;;;;;;;126.85;20.27;;;11.10;99.90;;;;;;4951025;29;20055;-65
2022/10/14 01:24:32;;;;;;;79.85;17.02;;;11.30;99.90;;;;;;4939043;29;20051;-65
2022/10/14 01:27:22;;;;;;;104.25;19.02;;;11.00;99.90;;;;;;4938763;29;20560;-65
2022/10/14 01:30:22;;;;;;;111.20;18.27;;;11.00;99.90;;;;;;4956322;29;20450;-65
2022/10/14 01:33:15;;;;;;;131.55;19.08;;;10.90;99.90;;;;;;4956206;29;20035;-65
2022/10/14 01:36:08;;;;;;;122.80;16.65;;;11.00;99.90;;;;;;4938699;29;20050;-65
2022/10/14 01:38:40;;;;;;;117.63;16.35;;;10.80;99.90;;;;;;4956062;29;20052;-65
2022/10/14 01:41:11;;;;;;;171.35;17.05;;;10.80;99.90;;;;;;4956306;29;20417;-65
2022/10/14 01:43:40;;;;;;;111.50;15.52;;;10.70;99.90;;;;;;4938743;29;20047;-65
2022/10/14 01:46:07;;;;;;;91.97;14.82;;;10.70;99.90;;;;;;4955772;28;20043;-65
2022/10/14 01:48:36;;;;;;;78.38;14.27;;;10.70;99.90;;;;;;4938682;29;20055;-65
2022/10/14 01:51:07;;;;;;;118.40;16.27;;;10.90;99.90;;;;;;4955844;29;20077;-65
2022/10/14 01:53:38;;;;;;;125.53;18.38;;;10.70;99.90;;;;;;4938538;29;20051;-65
2022/10/14 01:56:05;;;;;;;102.63;16.60;;;10.70;99.90;;;;;;4938484;29;20043;-65
2022/10/14 01:58:33;;;;;;;134.35;18.38;;;10.70;99.90;;;;;;4955482;29;20043;-65
2022/10/14 02:01:01;;;;;;;154.15;17.60;;;10.70;99.90;;;;;;4955288;28;20043;-65
2022/10/14 02:03:41;;;;;;;174.13;18.15;;;10.60;99.90;;;;;;4955534;28;20075;-65
2022/10/14 02:06:13;;;;;;;157.63;19.25;;;10.80;99.90;;;;;;4938502;29;20410;-65
2022/10/14 02:08:56;;;;;;;111.60;16.67;;;10.60;99.90;;;;;;4955407;29;20047;-65
2022/10/14 02:11:22;;;;;;;97.55;17.10;;;10.60;99.90;;;;;;4955673;29;20054;-65
2022/10/14 02:14:02;;;;;;;118.40;18.70;;;10.50;99.90;;;;;;4955311;29;20122;-65
2022/10/14 02:16:38;;;;;;;109.53;18.02;;;10.60;99.90;;;;;;4955385;28;20043;-65
2022/10/14 02:19:21;;;;;;;168.45;17.77;;;10.60;99.90;;;;;;4955398;29;20122;-65
2022/10/14 02:22:07;;;;;;;169.00;19.98;;;10.50;99.90;;;;;;4955534;29;20043;-65
2022/10/14 02:24:41;;;;;;;125.13;18.38;;;10.60;99.90;;;;;;4926786;29;20043;-65
2022/10/14 02:27:10;;;;;;;172.52;20.08;;;10.50;99.90;;;;;;4922411;29;20413;-65
2022/10/14 02:29:39;;;;;;;105.25;17.42;;;10.60;99.90;;;;;;4955242;28;20055;-65
2022/10/14 02:32:05;;;;;;;130.23;17.70;;;10.50;99.90;;;;;;4955222;28;20055;-65
2022/10/14 02:34:32;;;;;;;183.07;22.35;;;10.50;99.90;;;;;;4937923;29;20050;-65
2022/10/14 02:36:58;;;;;;;215.10;22.75;;;10.60;99.90;;;;;;4953939;28;20513;-65
2022/10/14 02:39:35;;;;;;;102.22;17.33;;;10.40;99.90;;;;;;4937891;28;20058;-65
2022/10/14 02:42:00;;;;;;;136.20;17.48;;;10.60;99.90;;;;;;4955128;29;20042;-65
2022/10/14 02:44:26;;;;;;;105.03;16.55;;;10.60;99.90;;;;;;4940144;29;20114;-65
2022/10/14 02:46:55;;;;;;;112.78;16.77;;;10.40;99.90;;;;;;4955076;29;20043;-65
2022/10/14 02:49:20;;;;;;;119.60;17.85;;;10.50;99.90;;;;;;4937600;29;20482;-65
2022/10/14 02:51:46;;;;;;;88.88;18.35;;;10.50;99.90;;;;;;4954870;29;20098;-65
2022/10/14 02:54:11;;;;;;;85.15;16.70;;;10.50;99.90;;;;;;4937761;29;20082;-65
2022/10/14 02:56:37;;;;;;;85.60;16.55;;;10.40;99.90;;;;;;4954680;28;20031;-65
2022/10/14 02:59:03;;;;;;;116.78;20.58;;;;;;;;;;4937565;29;20123;-65
2022/10/14 03:01:29;;;;;;;133.27;20.33;;;10.50;99.90;;;;;;4954926;29;20401;-65
2022/10/14 03:03:54;;;;;;;138.43;21.65;;;10.50;99.90;;;;;;4954723;29;20031;-65
2022/10/14 03:06:20;;;;;;;144.10;20.20;;;10.50;99.90;;;;;;4954600;29;20520;-65
2022/10/14 03:08:45;;;;;;;205.50;20.63;;;10.40;99.90;;;;;;4954858;29;20421;-65
2022/10/14 03:11:11;;;;;;;110.82;18.08;;;10.50;99.90;;;;;;4954658;29;20074;-65
2022/10/14 03:13:36;;;;;;;143.93;19.65;;;10.30;99.90;;;;;;4955591;28;20047;-65
2022/10/14 03:16:02;;;;;;;140.38;20.25;;;10.60;99.90;;;;;;4958555;29;20043;-65
2022/10/14 03:18:28;;;;;;;142.50;18.65;;;10.40;99.90;;;;;;4958577;29;20042;-65
2022/10/14 03:20:53;;;;;;;126.40;19.45;;;10.60;99.90;;;;;;4941366;29;20043;-65
2022/10/14 03:23:19;;;;;;;124.60;19.30;;;10.50;99.90;;;;;;4958474;29;20046;-65
2022/10/14 03:25:45;;;;;;;102.93;17.50;;;10.50;99.90;;;;;;4958548;29;20481;-65
2022/10/14 03:28:11;;;;;;;133.27;17.90;;;10.50;99.90;;;;;;4958455;29;20094;-65
2022/10/14 03:30:37;;;;;;;77.40;16.58;;;10.40;99.90;;;;;;4941077;29;20043;-65
2022/10/14 03:33:03;;;;;;;100.13;17.52;;;10.20;99.90;;;;;;4941178;29;20058;-65
2022/10/14 03:35:29;;;;;;;92.85;15.57;;;10.60;99.90;;;;;;4941100;29;20051;-65
2022/10/14 03:37:54;;;;;;;109.00;16.77;;;10.40;99.90;;;;;;4958542;29;20098;-65
2022/10/14 03:40:20;;;;;;;75.53;15.98;;;10.30;99.90;;;;;;4958118;29;20039;-65
2022/10/14 03:42:46;;;;;;;115.95;16.38;;;10.40;99.90;;;;;;4958132;29;20043;-65
2022/10/14 03:45:12;;;;;;;104.45;17.25;;;10.00;99.90;;;;;;4941470;29;20043;-65
2022/10/14 03:47:37;;;;;;;106.38;17.88;;;10.20;99.90;;;;;;4940879;29;20035;-65
2022/10/14 03:50:04;;;;;;;111.10;18.88;;;10.20;99.90;;;;;;4940950;29;20130;-65
2022/10/14 03:52:30;;;;;;;118.97;19.70;;;10.20;99.90;;;;;;4957800;29;20151;-65
2022/10/14 03:54:56;;;;;;;131.07;19.95;;;10.30;99.90;;;;;;4940774;29;20112;-65
2022/10/14 03:57:21;;;;;;;101.85;20.83;;;10.20;99.90;;;;;;4957938;29;20060;-65
2022/10/14 03:59:47;;;;;;;142.07;22.70;;;10.20;99.90;;;;;;4957780;29;20073;-65
2022/10/14 04:02:12;;;;;;;128.30;21.92;;;10.10;99.90;;;;;;4957770;28;20046;-65
2022/10/14 04:04:38;;;;;;;128.30;22.40;;;10.20;99.90;;;;;;4940642;29;20043;-65
2022/10/14 04:07:03;;;;;;;148.13;23.77;;;10.30;99.90;;;;;;4940673;29;20514;-65
2022/10/14 04:09:29;;;;;;;128.50;22.60;;;10.60;99.90;;;;;;4940311;29;20058;-65
2022/10/14 04:11:57;;;;;;;108.75;22.35;;;10.40;99.90;;;;;;4940570;29;20114;-65
2022/10/14 04:14:23;;;;;;;137.18;22.60;;;10.30;99.90;;;;;;4940205;29;20138;-64
2022/10/14 04:16:49;;;;;;;148.23;24.10;;;10.20;99.90;;;;;;4957529;29;20043;-65
2022/10/14 04:19:15;;;;;;;155.38;24.33;;;10.30;99.90;;;;;;4940258;29;20549;-65
2022/10/14 04:21:40;;;;;;;125.47;24.23;;;10.30;99.90;;;;;;4940274;29;20457;-65
2022/10/14 04:24:06;;;;;;;102.68;21.73;;;10.40;99.90;;;;;;4923791;29;20039;-65
2022/10/14 04:26:31;;;;;;;94.80;21.83;;;10.10;99.90;;;;;;4940113;29;20413;-65
2022/10/14 04:28:57;;;;;;;67.90;19.30;;;10.20;99.90;;;;;;4957363;29;20039;-65
2022/10/14 04:31:23;;;;;;;69.63;19.38;;;10.20;99.90;;;;;;4940082;29;20056;-64
2022/10/14 04:33:48;;;;;;;35.42;16.42;;;10.20;99.90;;;;;;4957385;28;20043;-65
2022/10/14 04:36:14;;;;;;;65.68;18.40;;;10.20;99.90;;;;;;4957199;29;20514;-65
2022/10/14 04:38:40;;;;;;;44.72;17.13;;;10.20;99.90;;;;;;4939893;29;20051;-65
2022/10/14 04:41:05;;;;;;;101.32;21.17;;;10.20;99.90;;;;;;4939896;29;20118;-65
2022/10/14 04:43:31;;;;;;;165.20;23.52;;;10.20;99.90;;;;;;4956855;29;20387;-65
2022/10/14 04:45:56;;;;;;;172.38;23.70;;;10.10;99.90;;;;;;4956902;28;20043;-65
2022/10/14 04:48:22;;;;;;;130.10;21.98;;;10.30;99.90;;;;;;4957036;28;20114;-65
2022/10/14 04:50:52;;;;;;;210.52;28.13;;;10.20;99.90;;;;;;4956895;28;20053;-65
2022/10/14 04:53:18;;;;;;;135.18;23.58;;;10.40;99.90;;;;;;4956860;29;20066;-65
2022/10/14 04:55:45;;;;;;;133.65;23.48;;;10.30;99.90;;;;;;4939405;29;20050;-65
2022/10/14 04:58:11;;;;;;;120.93;21.77;;;10.50;99.90;;;;;;4940004;29;20039;-65
2022/10/14 05:00:37;;;;;;;136.35;24.42;;;10.40;99.90;;;;;;4956992;28;20042;-65
2022/10/14 05:03:03;;;;;;;105.63;21.63;;;10.30;99.90;;;;;;4960921;28;20048;-65
2022/10/14 05:05:28;;;;;;;116.38;22.98;;;10.20;99.90;;;;;;4958160;28;20043;-65
2022/10/14 05:07:54;;;;;;;101.30;21.92;;;10.10;99.90;;;;;;4959058;28;20047;-65
2022/10/14 05:10:20;;;;;;;111.60;23.15;;;10.40;99.90;;;;;;4939241;29;20059;-65
2022/10/14 05:12:46;;;;;;;99.70;22.55;;;10.30;99.90;;;;;;4943693;28;20121;-64
2022/10/14 05:15:11;;;;;;;134.38;23.67;;;10.40;99.90;;;;;;4956679;29;20119;-65
2022/10/14 05:17:38;;;;;;;169.88;25.65;;;10.40;99.90;;;;;;4959669;28;20039;-64
2022/10/14 05:20:04;;;;;;;141.77;24.10;;;10.50;99.90;;;;;;4939850;29;20043;-65
2022/10/14 05:22:30;;;;;;;161.35;25.73;;;;;;;;;;4939159;29;20093;-65
2022/10/14 05:24:56;;;;;;;129.80;25.10;;;10.50;99.90;;;;;;4943215;29;20043;-65
2022/10/14 05:27:22;;;;;;;213.07;26.40;;;10.40;99.90;;;;;;4937338;28;20505;-65
2022/10/14 05:29:47;;;;;;;176.82;26.52;;;10.50;99.90;;;;;;4923025;29;20490;-64
2022/10/14 05:32:14;;;;;;;180.45;24.80;;;10.50;99.90;;;;;;4938052;29;20039;-64
2022/10/14 05:34:39;;;;;;;178.57;25.45;;;10.50;99.90;;;;;;4950350;28;20379;-65
2022/10/14 05:37:05;;;;;;;164.55;24.67;;;10.30;99.90;;;;;;4938147;29;20078;-65
2022/10/14 05:39:30;;;;;;;204.88;26.63;;;10.50;99.90;;;;;;4955351;29;20035;-65
2022/10/14 05:41:56;;;;;;;165.40;25.77;;;10.40;99.90;;;;;;4938884;29;20035;-65
2022/10/14 05:44:21;;;;;;;165.30;26.10;;;10.30;99.90;;;;;;4939734;29;20476;-65
2022/10/14 05:46:47;;;;;;;235.43;28.30;;;10.40;99.90;;;;;;4948274;28;20501;-65
2022/10/14 05:49:13;;;;;;;147.93;25.38;;;10.30;99.90;;;;;;4937390;29;20562;-65
2022/10/14 05:51:38;;;;;;;215.75;28.40;;;10.30;99.90;;;;;;4936446;29;20495;-65
2022/10/14 05:54:04;;;;;;;214.35;27.10;;;10.40;99.90;;;;;;4921779;29;20122;-65
2022/10/14 05:56:30;;;;;;;126.35;23.73;;;10.40;99.90;;;;;;4938283;29;20032;-65
2022/10/14 05:58:56;;;;;;;144.60;24.35;;;;;;;;;;4920690;29;20052;-65
2022/10/14 06:01:22;;;;;;;124.90;24.25;;;10.30;99.90;;;;;;4922396;29;20485;-65
2022/10/14 06:03:50;;;;;;;115.55;24.42;;;10.30;99.90;;;;;;4919543;29;20040;-65
2022/10/14 06:06:16;;;;;;;113.13;23.83;;;10.40;99.90;;;;;;4942393;28;20062;-65
2022/10/14 06:08:42;;;;;;;103.63;17.88;;;10.50;99.90;;;;;;4959454;28;20043;-65
2022/10/14 06:11:08;;;;;;;137.75;22.88;;;10.70;99.90;;;;;;4941778;28;20068;-65
2022/10/14 06:13:34;;;;;;;165.07;27.00;;;10.60;99.90;;;;;;4951608;29;20110;-65
2022/10/14 06:16:07;;;;;;;136.20;24.08;;;10.50;99.90;;;;;;4955287;29;20047;-65
2022/10/14 06:18:34;;;;;;;139.63;23.92;;;10.50;99.90;;;;;;4948771;29;20047;-65
2022/10/14 06:20:59;;;;;;;155.38;25.75;;;10.10;99.90;;;;;;4962760;28;20066;-65
2022/10/14 06:23:25;;;;;;;137.80;24.38;;;10.40;99.90;;;;;;4955712;28;20125;-65
2022/10/14 06:25:51;;;;;;;145.70;23.48;;;10.50;99.90;;;;;;4964240;28;20034;-65
2022/10/14 06:28:17;;;;;;;146.18;25.35;;;10.40;99.90;;;;;;4940895;29;20125;-65
2022/10/14 06:30:47;;;;;;;173.88;26.33;;;10.50;99.90;;;;;;4960141;28;20043;-65
2022/10/14 06:33:13;;;;;;;145.68;24.73;;;10.40;99.90;;;;;;4943757;28;20049;-65
2022/10/14 06:35:38;;;;;;;146.05;25.60;;;10.40;99.90;;;;;;4943984;29;20449;-65
2022/10/14 06:38:04;;;;;;;153.65;25.77;;;10.40;99.90;;;;;;4937999;29;20043;-64
2022/10/14 06:40:29;;;;;;;140.25;24.58;;;10.40;99.90;;;;;;4937629;29;20568;-65
2022/10/14 06:42:57;;;;;;;175.13;25.98;;;10.40;99.90;;;;;;4961153;28;20386;-64
2022/10/14 06:45:23;;;;;;;187.55;30.65;;;10.40;99.90;;;;;;4946746;29;20078;-65
2022/10/14 06:47:48;;;;;;;187.25;29.73;;;10.20;99.90;;;;;;4954763;28;20085;-64
2022/10/14 06:50:14;;;;;;;114.90;25.15;;;10.70;99.90;;;;;;4954973;29;20071;-65
2022/10/14 06:52:40;;;;;;;106.97;24.38;;;;;;;;;;4937449;29;20066;-65
2022/10/14 06:55:06;;;;;;;98.70;23.65;;;10.60;99.90;;;;;;4937880;29;20047;-65
2022/10/14 06:57:31;;;;;;;115.43;24.60;;;10.60;99.90;;;;;;4937495;28;20051;-64
2022/10/14 06:59:57;;;;;;;145.70;27.02;;;10.40;99.90;;;;;;4937539;29;20047;-65
2022/10/14 07:02:22;;;;;;;140.05;27.45;;;10.50;99.90;;;;;;4937611;29;20039;-65
2022/10/14 07:04:48;;;;;;;178.32;31.85;;;10.60;99.90;;;;;;4954553;29;20046;-65
2022/10/14 07:07:13;;;;;;;168.63;30.13;;;10.50;99.90;;;;;;4954320;29;20047;-65
2022/10/14 07:09:39;;;;;;;119.18;27.10;;;10.60;99.90;;;;;;4954710;29;20044;-64
2022/10/14 07:12:05;;;;;;;125.22;26.33;;;10.40;99.90;;;;;;4937389;29;20057;-64
2022/10/14 07:14:30;;;;;;;137.02;27.38;;;10.50;99.90;;;;;;4937594;29;20162;-64
2022/10/14 07:16:57;;;;;;;147.57;28.08;;;;;;;;;;4937309;29;20134;-64
2022/10/14 07:19:22;;;;;;;168.18;30.42;;;10.60;99.90;;;;;;4954817;28;20047;-65
2022/10/14 07:21:48;;;;;;;193.32;32.42;;;10.70;99.90;;;;;;4954635;29;20504;-64
2022/10/14 07:24:13;;;;;;;177.48;30.40;;;10.70;99.90;;;;;;4937295;29;20144;-64
2022/10/14 07:26:39;;;;;;;197.73;32.28;;;10.70;99.90;;;;;;4937298;29;20054;-64
2022/10/14 07:29:05;;;;;;;155.70;30.90;;;10.70;99.90;;;;;;4937591;28;20039;-65
2022/10/14 07:31:31;;;;;;;176.15;33.10;;;10.80;99.90;;;;;;4958787;28;20050;-65
2022/10/14 07:33:57;;;;;;;176.02;31.70;;;10.80;99.90;;;;;;4964253;28;20465;-65
2022/10/14 07:36:22;;;;;;;188.68;33.80;;;10.80;99.90;;;;;;4941873;29;20098;-65
2022/10/14 07:38:48;;;;;;;177.40;32.53;;;10.80;99.90;;;;;;4942535;29;20057;-66
2022/10/14 07:41:17;;;;;;;197.93;35.50;;;11.00;99.90;;;;;;4937368;29;20058;-65
2022/10/14 07:43:48;;;;;;;182.32;34.08;;;11.00;99.90;;;;;;4937040;29;20445;-65
2022/10/14 07:46:15;;;;;;;184.32;36.25;;;10.90;99.90;;;;;;4949929;29;20086;-65
2022/10/14 07:48:40;;;;;;;143.52;32.45;;;11.00;99.90;;;;;;4937009;29;20485;-65
2022/10/14 07:51:07;;;;;;;147.35;33.90;;;11.10;99.90;;;;;;4954246;29;20043;-65
2022/10/14 07:53:34;;;;;;;129.80;31.60;;;11.20;99.90;;;;;;4937316;29;20078;-65
2022/10/14 07:56:00;;;;;;;125.00;31.75;;;11.10;99.90;;;;;;4936775;29;20086;-65
2022/10/14 07:58:28;;;;;;;113.97;33.28;;;11.40;99.90;;;;;;4937361;28;20509;-65
2022/10/14 08:00:54;;;;;;;119.13;29.98;;;11.30;99.90;;;;;;4939483;29;20039;-65
2022/10/14 08:03:22;;;;;;;119.47;32.35;;;11.30;99.90;;;;;;4957284;29;20062;-65
2022/10/14 08:05:49;;;;;;;108.88;31.45;;;;;;;;;;4957543;28;20525;-66
2022/10/14 08:08:16;;;;;;;119.20;32.47;;;11.30;99.90;;;;;;4939951;29;20053;-65
2022/10/14 08:10:42;;;;;;;111.32;30.75;;;11.30;99.90;;;;;;4940125;29;20074;-65
2022/10/14 08:13:08;;;;;;;121.45;32.47;;;11.30;99.90;;;;;;4940163;29;20035;-65
2022/10/14 08:15:39;;;;;;;110.00;33.08;;;11.40;99.90;;;;;;4957440;29;20042;-65
2022/10/14 08:18:07;;;;;;;101.65;31.02;;;11.30;99.90;;;;;;4957592;28;20074;-65
2022/10/14 08:20:34;;;;;;;94.40;30.50;;;11.30;99.90;;;;;;4957462;29;20039;-65
2022/10/14 08:23:00;;;;;;;104.47;30.92;;;11.50;99.90;;;;;;4957098;28;20039;-65
2022/10/14 08:25:26;;;;;;;104.80;29.70;;;11.50;99.90;;;;;;4924334;29;20046;-65
2022/10/14 08:27:53;;;;;;;98.25;29.08;;;11.60;99.90;;;;;;4957009;28;20035;-66
2022/10/14 08:30:19;;;;;;;86.15;28.80;;;11.70;99.90;;;;;;4961787;28;20047;-66
2022/10/14 08:32:45;;;;;;;99.93;29.40;;;11.60;99.90;;;;;;4944255;28;20101;-65
2022/10/14 08:35:11;;;;;;;85.60;28.80;;;11.80;99.90;;;;;;4964077;28;20035;-65
2022/10/14 08:37:36;;;;;;;83.57;29.67;;;11.80;99.90;;;;;;4956925;29;20043;-65
2022/10/14 08:40:03;;;;;;;90.45;27.60;;;11.70;99.90;;;;;;4940064;29;20039;-65
2022/10/14 08:42:48;;;;;;;89.80;30.50;;;11.80;99.90;;;;;;4961570;28;20039;-65
2022/10/14 08:45:32;;;;;;;96.43;28.75;;;11.70;99.90;;;;;;4946516;29;20063;-65
2022/10/14 08:47:58;;;;;;;79.80;27.92;;;11.70;99.90;;;;;;4928327;29;20054;-64
2022/10/14 08:50:37;;;;;;;97.25;30.38;;;11.60;99.90;;;;;;4957014;28;20102;-65
2022/10/14 08:53:12;;;;;;;88.45;29.10;;;11.80;99.90;;;;;;4953683;29;20122;-65
2022/10/14 08:55:42;;;;;;;86.80;29.02;;;11.80;99.90;;;;;;4956614;29;20043;-65
2022/10/14 08:58:23;;;;;;;88.18;31.02;;;11.80;99.90;;;;;;4957041;29;20046;-65
2022/10/14 09:00:51;;;;;;;82.88;30.02;;;11.80;99.90;;;;;;4956668;29;20074;-65
2022/10/14 09:03:35;;;;;;;100.78;31.05;;;11.80;99.90;;;;;;4956740;28;20043;-65
2022/10/14 09:06:09;;;;;;;108.57;31.33;;;11.90;99.90;;;;;;4956574;29;20120;-65
2022/10/14 09:08:43;;;;;;;84.25;27.50;;;11.90;99.90;;;;;;4934381;29;20051;-65
2022/10/14 09:11:16;;;;;;;83.97;25.88;;;12.00;99.90;;;;;;4962142;28;20039;-65
2022/10/14 09:13:45;;;;;;;74.90;26.13;;;12.30;99.90;;;;;;4939178;29;20047;-65
2022/10/14 09:16:45;;;;;;;89.97;26.65;;;12.20;99.90;;;;;;4956331;29;20094;-65
2022/10/14 09:19:27;;;;;;;74.63;26.42;;;12.10;99.90;;;;;;4953958;28;20071;-64
2022/10/14 09:21:54;;;;;;;61.70;22.50;;;12.20;99.90;;;;;;4927702;29;20090;-65
2022/10/14 09:24:34;;;;;;;64.13;23.25;;;12.20;99.90;;;;;;4960904;28;20386;-65
2022/10/14 09:27:05;;;;;;;58.28;20.08;;;12.00;99.90;;;;;;4936902;29;20050;-65
2022/10/14 09:29:44;;;;;;;57.63;21.63;;;12.10;99.90;;;;;;4931940;28;20046;-65
2022/10/14 09:32:14;;;;;;;49.13;18.13;;;12.20;99.90;;;;;;4956152;28;20043;-66
2022/10/14 09:34:45;;;;;;;56.20;20.45;;;12.20;99.90;;;;;;4962086;28;20039;-66
2022/10/14 09:37:29;;;;;;;48.45;18.13;;;12.20;99.90;;;;;;4938721;29;20058;-65
2022/10/14 09:40:08;;;;;;;44.90;17.98;;;12.10;99.90;;;;;;4933620;29;20486;-65
2022/10/14 09:42:47;;;;;;;38.88;15.77;;;12.20;99.90;;;;;;4938633;29;20046;-66
2022/10/14 09:45:17;;;;;;;52.35;19.98;;;12.40;99.90;;;;;;4955871;28;20039;-66
2022/10/14 09:47:49;;;;;;;45.35;16.58;;;12.30;99.90;;;;;;4956279;28;20054;-65
2022/10/14 09:50:23;;;;;;;45.95;17.25;;;12.20;99.90;;;;;;4955889;28;20455;-66
2022/10/14 09:52:56;;;;;;;38.03;15.50;;;12.20;99.90;;;;;;4955480;29;20066;-65
2022/10/14 09:55:23;;;;;;;45.30;16.75;;;12.20;99.90;;;;;;4938313;29;20050;-65
2022/10/14 09:58:03;;;;;;;41.20;15.20;;;12.30;99.90;;;;;;4955574;29;20046;-66
2022/10/14 10:00:30;;;;;;;39.67;14.90;;;12.30;99.90;;;;;;4956003;28;20126;-66
2022/10/14 10:02:57;;;;;;;44.35;16.13;;;;;;;;;;4957178;28;20082;-65
2022/10/14 10:05:27;;;;;;;47.42;16.55;;;12.40;99.90;;;;;;4938257;29;20071;-66
2022/10/14 10:08:18;;;;;;;45.67;17.00;;;12.50;99.90;;;;;;4957484;28;20059;-65
2022/10/14 10:11:09;;;;;;;45.55;16.42;;;12.50;99.90;;;;;;4939208;28;20062;-65
2022/10/14 10:13:38;;;;;;;40.13;15.25;;;12.40;99.90;;;;;;4947978;28;20055;-65
2022/10/14 10:16:06;;;;;;;40.13;13.48;;;12.40;99.90;;;;;;4937800;29;20059;-65
2022/10/14 10:18:32;;;;;;;42.83;15.68;;;12.40;99.90;;;;;;4938368;29;20058;-66
2022/10/14 10:21:06;;;;;;;40.22;15.68;;;12.40;99.90;;;;;;4955201;29;20044;-66
2022/10/14 10:23:33;;;;;;;40.85;16.08;;;12.30;99.90;;;;;;4937419;29;20560;-65
2022/10/14 10:26:34;;;;;;;35.35;15.63;;;12.40;99.90;;;;;;4937849;29;20047;-66
2022/10/14 10:29:03;;;;;;;41.80;15.25;;;12.60;99.90;;;;;;4914977;29;20127;-65
2022/10/14 10:32:08;;;;;;;36.10;14.60;;;12.70;99.90;;;;;;4947446;28;20059;-65
2022/10/14 10:35:06;;;;;;;36.65;14.90;;;12.60;99.90;;;;;;4940311;28;20044;-65
2022/10/14 10:38:01;;;;;;;30.60;13.95;;;12.60;99.90;;;;;;4918437;29;20118;-65
2022/10/14 10:40:38;;;;;;;41.03;15.05;;;12.60;99.90;;;;;;4937715;29;20073;-65
2022/10/14 10:43:22;;;;;;;36.33;14.00;;;12.60;99.90;;;;;;4921278;29;20490;-65
2022/10/14 10:46:13;;;;;;;33.22;12.90;;;12.70;99.90;;;;;;4940163;29;20059;-65
2022/10/14 10:48:46;;;;;;;33.88;12.38;;;12.70;99.90;;;;;;4935151;29;20070;-65
2022/10/14 10:51:22;;;;;;;33.47;12.95;;;13.10;99.90;;;;;;4951967;28;20053;-65
2022/10/14 10:53:48;;;;;;;30.88;13.40;;;12.90;99.90;;;;;;4954606;28;20043;-65
2022/10/14 10:56:33;;;;;;;25.40;11.02;;;12.90;99.90;;;;;;4937540;29;20126;-64
2022/10/14 10:59:30;;;;;;;28.13;12.27;;;12.90;99.90;;;;;;4954932;29;20114;-65
2022/10/14 11:02:36;;;;;;;25.42;11.00;;;12.90;99.90;;;;;;4937800;29;20493;-66
2022/10/14 11:05:26;;;;;;;27.25;11.35;;;13.00;99.90;;;;;;4951712;29;20047;-65
2022/10/14 11:12:11;;;;;;;28.40;11.27;;;13.10;99.90;;;;;;4939451;28;20059;-66
2022/10/14 11:14:19;;;;;;;35.38;11.75;;;13.10;99.90;;;;;;4940154;29;20047;-65
2022/10/14 11:17:05;;;;;;;21.67;10.43;;;13.10;99.90;;;;;;4940252;29;20049;-66
2022/10/14 11:19:51;;;;;;;24.75;9.98;;;13.10;99.90;;;;;;4937333;29;20050;-66
2022/10/14 11:22:38;;;;;;;24.48;10.45;;;13.00;99.90;;;;;;4946352;28;20039;-65
2022/10/14 11:25:39;;;;;;;28.23;11.15;;;13.10;99.90;;;;;;4938490;29;20413;-65
2022/10/14 11:28:37;;;;;;;25.95;10.88;;;13.10;99.90;;;;;;4944114;28;20135;-65
2022/10/14 11:31:17;;;;;;;28.90;11.18;;;13.10;99.90;;;;;;4955988;28;20043;-65
2022/10/14 11:33:49;;;;;;;26.25;10.70;;;13.20;99.90;;;;;;4959772;28;20166;-65
2022/10/14 11:36:45;;;;;;;29.05;12.27;;;13.00;99.90;;;;;;4965356;28;20051;-66
2022/10/14 11:39:35;;;;;;;26.30;11.35;;;13.20;99.90;;;;;;4930208;29;20044;-65
2022/10/14 11:42:12;;;;;;;28.52;12.63;;;13.00;99.90;;;;;;4940819;29;20146;-66
2022/10/14 11:44:40;;;;;;;32.40;12.60;;;13.10;99.90;;;;;;4943964;29;20054;-66
2022/10/14 11:47:31;;;;;;;31.52;11.55;;;13.10;99.90;;;;;;4946720;29;20126;-66
2022/10/14 11:50:18;;;;;;;34.35;12.75;;;13.20;99.90;;;;;;4941369;29;20383;-66
2022/10/14 11:53:00;;;;;;;28.67;11.65;;;13.20;99.90;;;;;;4940614;29;20054;-66
2022/10/14 11:55:33;;;;;;;29.50;10.70;;;13.40;99.90;;;;;;4940945;29;20556;-66
2022/10/14 11:58:14;;;;;;;27.85;11.55;;;13.30;99.90;;;;;;4940641;29;20379;-67
2022/10/14 12:00:43;;;;;;;23.75;10.80;;;13.60;99.90;;;;;;4940796;29;20047;-67
2022/10/14 12:03:24;;;;;;;29.17;12.85;;;13.10;99.90;;;;;;4940484;29;20426;-67
2022/10/14 12:06:05;;;;;;;29.52;11.98;;;13.40;99.90;;;;;;4957686;29;20071;-66
2022/10/14 12:08:59;;;;;;;30.00;12.68;;;13.60;99.90;;;;;;4933238;29;20051;-67
2022/10/14 12:11:42;;;;;;;32.97;12.52;;;13.20;99.90;;;;;;4957543;29;20031;-66
2022/10/14 12:14:18;;;;;;;31.10;11.82;;;13.40;99.90;;;;;;4957745;29;20144;-66
2022/10/14 12:16:47;;;;;;;33.65;13.00;;;13.50;99.90;;;;;;4940525;29;20147;-66
2022/10/14 12:19:18;;;;;;;38.30;14.60;;;13.60;99.90;;;;;;4957449;28;20031;-65
2022/10/14 12:22:00;;;;;;;36.60;15.00;;;13.50;99.90;;;;;;4940232;29;20478;-65
2022/10/14 12:24:30;;;;;;;39.25;15.55;;;13.60;99.90;;;;;;4940133;29;20557;-65
2022/10/14 12:26:57;;;;;;;42.10;16.60;;;13.60;99.90;;;;;;4940123;29;20057;-65
2022/10/14 12:29:27;;;;;;;53.17;18.08;;;13.70;99.90;;;;;;4940381;29;20404;-65
2022/10/14 12:32:01;;;;;;;53.35;18.73;;;13.70;99.90;;;;;;4957044;29;20045;-65
2022/10/14 12:34:35;;;;;;;44.38;18.35;;;13.70;99.90;;;;;;4940380;29;20130;-65
2022/10/14 12:37:23;;;;;;;47.53;19.25;;;13.70;99.90;;;;;;4939822;29;20053;-65
2022/10/14 12:39:53;;;;;;;48.90;20.08;;;13.80;99.90;;;;;;4939828;29;20047;-65
2022/10/14 12:42:20;;;;;;;47.95;19.20;;;13.90;99.90;;;;;;4926951;29;20074;-65
2022/10/14 12:44:54;;;;;;;53.15;20.15;;;13.80;99.90;;;;;;4943361;28;20417;-65
2022/10/14 12:47:30;;;;;;;48.77;20.30;;;13.90;99.90;;;;;;4957080;28;20412;-65